sensor_id;sensor_type;location;lat;lon;timestamp;P1;durP1;ratioP1;P2;durP2;ratioP2
10387;SDS011;5240;51.128;4.566;2024-02-21T00:00:32;15.57;;;7.20;;
10387;SDS011;5240;51.128;4.566;2024-02-21T00:02:59;13.98;;;6.63;;
10387;SDS011;5240;51.128;4.566;2024-02-21T00:05:27;16.85;;;7.93;;
10387;SDS011;5240;51.128;4.566;2024-02-21T00:07:54;14.30;;;7.63;;
10387;SDS011;5240;51.128;4.566;2024-02-21T00:10:21;18.30;;;8.27;;
10387;SDS011;5240;51.128;4.566;2024-02-21T00:12:50;19.50;;;7.32;;
10387;SDS011;5240;51.128;4.566;2024-02-21T00:15:17;16.63;;;6.80;;
10387;SDS011;5240;51.128;4.566;2024-02-21T00:17:46;16.83;;;7.00;;
10387;SDS011;5240;51.128;4.566;2024-02-21T00:20:13;19.35;;;7.03;;
10387;SDS011;5240;51.128;4.566;2024-02-21T00:22:41;14.25;;;7.25;;
10387;SDS011;5240;51.128;4.566;2024-02-21T00:25:08;16.90;;;7.32;;
10387;SDS011;5240;51.128;4.566;2024-02-21T00:27:35;17.98;;;7.25;;
10387;SDS011;5240;51.128;4.566;2024-02-21T00:30:03;17.52;;;6.97;;
10387;SDS011;5240;51.128;4.566;2024-02-21T00:32:30;15.23;;;6.70;;
10387;SDS011;5240;51.128;4.566;2024-02-21T00:35:00;21.02;;;7.70;;
10387;SDS011;5240;51.128;4.566;2024-02-21T00:37:27;17.95;;;7.43;;
10387;SDS011;5240;51.128;4.566;2024-02-21T00:39:55;15.90;;;7.25;;
10387;SDS011;5240;51.128;4.566;2024-02-21T00:42:22;14.82;;;6.65;;
10387;SDS011;5240;51.128;4.566;2024-02-21T00:44:49;16.65;;;6.90;;
10387;SDS011;5240;51.128;4.566;2024-02-21T00:47:16;16.50;;;6.93;;
10387;SDS011;5240;51.128;4.566;2024-02-21T00:49:43;17.23;;;6.97;;
10387;SDS011;5240;51.128;4.566;2024-02-21T00:52:12;16.50;;;7.40;;
10387;SDS011;5240;51.128;4.566;2024-02-21T00:54:39;16.65;;;6.47;;
10387;SDS011;5240;51.128;4.566;2024-02-21T00:57:06;15.63;;;6.85;;
10387;SDS011;5240;51.128;4.566;2024-02-21T00:59:34;15.02;;;6.45;;
10387;SDS011;5240;51.128;4.566;2024-02-21T01:02:01;11.98;;;6.38;;
10387;SDS011;5240;51.128;4.566;2024-02-21T01:04:28;16.80;;;6.78;;
10387;SDS011;5240;51.128;4.566;2024-02-21T01:06:55;14.25;;;6.75;;
10387;SDS011;5240;51.128;4.566;2024-02-21T01:09:24;13.52;;;6.32;;
10387;SDS011;5240;51.128;4.566;2024-02-21T01:11:52;17.63;;;7.28;;
10387;SDS011;5240;51.128;4.566;2024-02-21T01:14:19;16.23;;;6.68;;
10387;SDS011;5240;51.128;4.566;2024-02-21T01:16:46;14.90;;;7.10;;
10387;SDS011;5240;51.128;4.566;2024-02-21T01:19:13;14.35;;;7.32;;
10387;SDS011;5240;51.128;4.566;2024-02-21T01:21:41;16.23;;;7.15;;
10387;SDS011;5240;51.128;4.566;2024-02-21T01:24:09;14.35;;;6.55;;
10387;SDS011;5240;51.128;4.566;2024-02-21T01:26:37;13.10;;;6.55;;
10387;SDS011;5240;51.128;4.566;2024-02-21T01:29:04;14.57;;;6.72;;
10387;SDS011;5240;51.128;4.566;2024-02-21T01:31:32;15.85;;;7.07;;
10387;SDS011;5240;51.128;4.566;2024-02-21T01:33:59;15.57;;;6.55;;
10387;SDS011;5240;51.128;4.566;2024-02-21T01:36:26;12.93;;;6.80;;
10387;SDS011;5240;51.128;4.566;2024-02-21T01:38:53;14.70;;;7.28;;
10387;SDS011;5240;51.128;4.566;2024-02-21T01:41:21;14.93;;;7.07;;
10387;SDS011;5240;51.128;4.566;2024-02-21T01:43:49;14.52;;;7.50;;
10387;SDS011;5240;51.128;4.566;2024-02-21T01:46:16;15.82;;;7.65;;
10387;SDS011;5240;51.128;4.566;2024-02-21T01:48:44;17.38;;;7.57;;
10387;SDS011;5240;51.128;4.566;2024-02-21T01:51:12;20.35;;;8.00;;
10387;SDS011;5240;51.128;4.566;2024-02-21T01:53:42;15.70;;;8.02;;
10387;SDS011;5240;51.128;4.566;2024-02-21T01:56:09;17.13;;;8.23;;
10387;SDS011;5240;51.128;4.566;2024-02-21T01:58:37;22.17;;;8.60;;
10387;SDS011;5240;51.128;4.566;2024-02-21T02:01:07;20.20;;;8.98;;
10387;SDS011;5240;51.128;4.566;2024-02-21T02:03:34;16.25;;;7.78;;
10387;SDS011;5240;51.128;4.566;2024-02-21T02:06:02;16.30;;;7.32;;
10387;SDS011;5240;51.128;4.566;2024-02-21T02:08:29;15.98;;;7.43;;
10387;SDS011;5240;51.128;4.566;2024-02-21T02:10:56;14.15;;;7.60;;
10387;SDS011;5240;51.128;4.566;2024-02-21T02:13:24;15.52;;;8.05;;
10387;SDS011;5240;51.128;4.566;2024-02-21T02:15:51;14.55;;;7.47;;
10387;SDS011;5240;51.128;4.566;2024-02-21T02:18:20;15.57;;;7.55;;
10387;SDS011;5240;51.128;4.566;2024-02-21T02:20:47;17.42;;;7.88;;
10387;SDS011;5240;51.128;4.566;2024-02-21T02:23:19;18.98;;;8.00;;
10387;SDS011;5240;51.128;4.566;2024-02-21T02:25:47;14.90;;;7.85;;
10387;SDS011;5240;51.128;4.566;2024-02-21T02:28:16;16.30;;;8.05;;
10387;SDS011;5240;51.128;4.566;2024-02-21T02:30:43;19.83;;;8.63;;
10387;SDS011;5240;51.128;4.566;2024-02-21T02:33:10;20.00;;;8.57;;
10387;SDS011;5240;51.128;4.566;2024-02-21T02:35:38;20.73;;;9.15;;
10387;SDS011;5240;51.128;4.566;2024-02-21T02:38:05;17.10;;;8.95;;
10387;SDS011;5240;51.128;4.566;2024-02-21T02:40:34;18.58;;;8.70;;
10387;SDS011;5240;51.128;4.566;2024-02-21T02:43:01;21.42;;;9.52;;
10387;SDS011;5240;51.128;4.566;2024-02-21T02:45:29;20.23;;;9.00;;
10387;SDS011;5240;51.128;4.566;2024-02-21T02:47:56;22.00;;;9.85;;
10387;SDS011;5240;51.128;4.566;2024-02-21T02:50:24;16.58;;;8.55;;
10387;SDS011;5240;51.128;4.566;2024-02-21T02:52:51;17.23;;;8.80;;
10387;SDS011;5240;51.128;4.566;2024-02-21T02:55:19;17.08;;;9.10;;
10387;SDS011;5240;51.128;4.566;2024-02-21T02:57:48;20.40;;;9.43;;
10387;SDS011;5240;51.128;4.566;2024-02-21T03:00:15;20.13;;;9.10;;
10387;SDS011;5240;51.128;4.566;2024-02-21T03:02:42;16.90;;;8.00;;
10387;SDS011;5240;51.128;4.566;2024-02-21T03:05:13;17.98;;;8.30;;
10387;SDS011;5240;51.128;4.566;2024-02-21T03:07:40;18.42;;;8.85;;
10387;SDS011;5240;51.128;4.566;2024-02-21T03:10:09;16.08;;;8.60;;
10387;SDS011;5240;51.128;4.566;2024-02-21T03:12:36;18.48;;;9.00;;
10387;SDS011;5240;51.128;4.566;2024-02-21T03:15:05;17.13;;;8.60;;
10387;SDS011;5240;51.128;4.566;2024-02-21T03:17:33;14.35;;;7.80;;
10387;SDS011;5240;51.128;4.566;2024-02-21T03:20:00;16.15;;;7.72;;
10387;SDS011;5240;51.128;4.566;2024-02-21T03:22:30;18.90;;;8.93;;
10387;SDS011;5240;51.128;4.566;2024-02-21T03:24:58;19.20;;;8.88;;
10387;SDS011;5240;51.128;4.566;2024-02-21T03:27:26;16.25;;;8.18;;
10387;SDS011;5240;51.128;4.566;2024-02-21T03:29:53;19.73;;;8.63;;
10387;SDS011;5240;51.128;4.566;2024-02-21T03:32:22;19.80;;;8.88;;
10387;SDS011;5240;51.128;4.566;2024-02-21T03:34:49;14.98;;;8.63;;
10387;SDS011;5240;51.128;4.566;2024-02-21T03:37:16;21.70;;;9.52;;
10387;SDS011;5240;51.128;4.566;2024-02-21T03:39:43;18.90;;;9.60;;
10387;SDS011;5240;51.128;4.566;2024-02-21T03:42:11;17.85;;;9.73;;
10387;SDS011;5240;51.128;4.566;2024-02-21T03:44:38;21.58;;;8.68;;
10387;SDS011;5240;51.128;4.566;2024-02-21T03:47:06;14.75;;;8.88;;
10387;SDS011;5240;51.128;4.566;2024-02-21T03:49:37;18.35;;;9.25;;
10387;SDS011;5240;51.128;4.566;2024-02-21T03:52:04;22.92;;;9.75;;
10387;SDS011;5240;51.128;4.566;2024-02-21T03:54:31;21.63;;;9.73;;
10387;SDS011;5240;51.128;4.566;2024-02-21T03:56:58;20.52;;;9.27;;
10387;SDS011;5240;51.128;4.566;2024-02-21T03:59:26;28.23;;;10.23;;
10387;SDS011;5240;51.128;4.566;2024-02-21T04:01:53;21.40;;;9.45;;
10387;SDS011;5240;51.128;4.566;2024-02-21T04:04:20;15.40;;;9.88;;
10387;SDS011;5240;51.128;4.566;2024-02-21T04:06:49;16.10;;;9.18;;
10387;SDS011;5240;51.128;4.566;2024-02-21T04:09:17;22.55;;;9.30;;
10387;SDS011;5240;51.128;4.566;2024-02-21T04:11:44;17.67;;;9.38;;
10387;SDS011;5240;51.128;4.566;2024-02-21T04:14:11;20.75;;;9.65;;
10387;SDS011;5240;51.128;4.566;2024-02-21T04:16:38;16.58;;;9.82;;
10387;SDS011;5240;51.128;4.566;2024-02-21T04:19:06;21.00;;;9.13;;
10387;SDS011;5240;51.128;4.566;2024-02-21T04:21:33;19.42;;;9.40;;
10387;SDS011;5240;51.128;4.566;2024-02-21T04:24:02;19.45;;;9.05;;
10387;SDS011;5240;51.128;4.566;2024-02-21T04:26:30;14.80;;;8.70;;
10387;SDS011;5240;51.128;4.566;2024-02-21T04:28:58;16.80;;;8.73;;
10387;SDS011;5240;51.128;4.566;2024-02-21T04:31:25;18.25;;;8.93;;
10387;SDS011;5240;51.128;4.566;2024-02-21T04:33:52;22.88;;;9.93;;
10387;SDS011;5240;51.128;4.566;2024-02-21T04:36:19;15.60;;;8.75;;
10387;SDS011;5240;51.128;4.566;2024-02-21T04:38:47;21.98;;;8.93;;
10387;SDS011;5240;51.128;4.566;2024-02-21T04:41:16;15.73;;;8.95;;
10387;SDS011;5240;51.128;4.566;2024-02-21T04:43:45;19.52;;;10.20;;
10387;SDS011;5240;51.128;4.566;2024-02-21T04:46:13;20.85;;;9.65;;
10387;SDS011;5240;51.128;4.566;2024-02-21T04:48:40;15.52;;;8.85;;
10387;SDS011;5240;51.128;4.566;2024-02-21T04:51:08;13.90;;;8.93;;
10387;SDS011;5240;51.128;4.566;2024-02-21T04:53:35;23.63;;;9.93;;
10387;SDS011;5240;51.128;4.566;2024-02-21T04:56:03;19.13;;;9.00;;
10387;SDS011;5240;51.128;4.566;2024-02-21T04:58:31;15.93;;;8.82;;
10387;SDS011;5240;51.128;4.566;2024-02-21T05:00:59;17.17;;;9.13;;
10387;SDS011;5240;51.128;4.566;2024-02-21T05:03:26;13.70;;;9.15;;
10387;SDS011;5240;51.128;4.566;2024-02-21T05:05:53;19.52;;;9.35;;
10387;SDS011;5240;51.128;4.566;2024-02-21T05:08:20;17.67;;;9.77;;
10387;SDS011;5240;51.128;4.566;2024-02-21T05:10:48;16.60;;;8.63;;
10387;SDS011;5240;51.128;4.566;2024-02-21T05:13:15;20.98;;;8.90;;
10387;SDS011;5240;51.128;4.566;2024-02-21T05:15:43;17.73;;;9.50;;
10387;SDS011;5240;51.128;4.566;2024-02-21T05:18:11;15.32;;;8.88;;
10387;SDS011;5240;51.128;4.566;2024-02-21T05:20:38;17.40;;;8.75;;
10387;SDS011;5240;51.128;4.566;2024-02-21T05:23:05;21.75;;;9.32;;
10387;SDS011;5240;51.128;4.566;2024-02-21T05:25:32;17.27;;;9.18;;
10387;SDS011;5240;51.128;4.566;2024-02-21T05:28:00;18.20;;;8.52;;
10387;SDS011;5240;51.128;4.566;2024-02-21T05:30:28;18.25;;;9.20;;
10387;SDS011;5240;51.128;4.566;2024-02-21T05:32:57;15.95;;;8.63;;
10387;SDS011;5240;51.128;4.566;2024-02-21T05:35:27;15.05;;;8.13;;
10387;SDS011;5240;51.128;4.566;2024-02-21T05:37:54;16.05;;;8.20;;
10387;SDS011;5240;51.128;4.566;2024-02-21T05:40:22;17.20;;;9.00;;
10387;SDS011;5240;51.128;4.566;2024-02-21T05:42:50;19.75;;;9.10;;
10387;SDS011;5240;51.128;4.566;2024-02-21T05:45:17;17.73;;;7.85;;
10387;SDS011;5240;51.128;4.566;2024-02-21T05:47:45;14.10;;;8.90;;
10387;SDS011;5240;51.128;4.566;2024-02-21T05:50:13;16.25;;;8.77;;
10387;SDS011;5240;51.128;4.566;2024-02-21T05:52:40;17.65;;;8.65;;
10387;SDS011;5240;51.128;4.566;2024-02-21T05:55:08;13.70;;;7.72;;
10387;SDS011;5240;51.128;4.566;2024-02-21T05:57:35;15.93;;;8.25;;
10387;SDS011;5240;51.128;4.566;2024-02-21T06:00:03;17.58;;;8.77;;
10387;SDS011;5240;51.128;4.566;2024-02-21T06:02:31;17.20;;;8.70;;
10387;SDS011;5240;51.128;4.566;2024-02-21T06:04:58;20.95;;;9.18;;
10387;SDS011;5240;51.128;4.566;2024-02-21T06:07:27;26.80;;;8.57;;
10387;SDS011;5240;51.128;4.566;2024-02-21T06:09:54;14.93;;;8.40;;
10387;SDS011;5240;51.128;4.566;2024-02-21T06:12:22;14.15;;;8.68;;
10387;SDS011;5240;51.128;4.566;2024-02-21T06:14:49;14.68;;;8.68;;
10387;SDS011;5240;51.128;4.566;2024-02-21T06:17:16;12.90;;;8.30;;
10387;SDS011;5240;51.128;4.566;2024-02-21T06:19:43;14.57;;;8.40;;
10387;SDS011;5240;51.128;4.566;2024-02-21T06:22:11;13.23;;;8.18;;
10387;SDS011;5240;51.128;4.566;2024-02-21T06:24:39;19.85;;;8.75;;
10387;SDS011;5240;51.128;4.566;2024-02-21T06:27:07;16.65;;;8.85;;
10387;SDS011;5240;51.128;4.566;2024-02-21T06:29:34;14.77;;;8.45;;
10387;SDS011;5240;51.128;4.566;2024-02-21T06:32:02;14.32;;;8.07;;
10387;SDS011;5240;51.128;4.566;2024-02-21T06:34:29;18.48;;;8.30;;
10387;SDS011;5240;51.128;4.566;2024-02-21T06:36:56;15.43;;;8.18;;
10387;SDS011;5240;51.128;4.566;2024-02-21T06:39:23;15.23;;;7.95;;
10387;SDS011;5240;51.128;4.566;2024-02-21T06:41:52;12.73;;;7.65;;
10387;SDS011;5240;51.128;4.566;2024-02-21T06:44:20;13.88;;;7.53;;
10387;SDS011;5240;51.128;4.566;2024-02-21T06:46:48;18.58;;;8.32;;
10387;SDS011;5240;51.128;4.566;2024-02-21T06:49:15;15.40;;;7.57;;
10387;SDS011;5240;51.128;4.566;2024-02-21T06:51:42;13.88;;;7.57;;
10387;SDS011;5240;51.128;4.566;2024-02-21T06:54:10;14.98;;;8.38;;
10387;SDS011;5240;51.128;4.566;2024-02-21T06:56:37;16.23;;;7.85;;
10387;SDS011;5240;51.128;4.566;2024-02-21T06:59:06;16.10;;;8.52;;
10387;SDS011;5240;51.128;4.566;2024-02-21T07:01:33;14.00;;;7.78;;
10387;SDS011;5240;51.128;4.566;2024-02-21T07:04:00;13.23;;;8.20;;
10387;SDS011;5240;51.128;4.566;2024-02-21T07:06:28;12.68;;;6.78;;
10387;SDS011;5240;51.128;4.566;2024-02-21T07:08:56;12.60;;;7.55;;
10387;SDS011;5240;51.128;4.566;2024-02-21T07:11:24;16.40;;;7.72;;
10387;SDS011;5240;51.128;4.566;2024-02-21T07:13:52;12.75;;;7.78;;
10387;SDS011;5240;51.128;4.566;2024-02-21T07:16:20;12.35;;;7.18;;
10387;SDS011;5240;51.128;4.566;2024-02-21T07:18:48;12.75;;;8.20;;
10387;SDS011;5240;51.128;4.566;2024-02-21T07:21:15;13.30;;;7.20;;
10387;SDS011;5240;51.128;4.566;2024-02-21T07:23:42;12.30;;;7.20;;
10387;SDS011;5240;51.128;4.566;2024-02-21T07:26:10;10.02;;;7.07;;
10387;SDS011;5240;51.128;4.566;2024-02-21T07:28:37;12.57;;;6.75;;
10387;SDS011;5240;51.128;4.566;2024-02-21T07:31:05;11.65;;;6.60;;
10387;SDS011;5240;51.128;4.566;2024-02-21T07:46:40;11.30;;;7.40;;
10387;SDS011;5240;51.128;4.566;2024-02-21T07:49:15;14.25;;;7.50;;
10387;SDS011;5240;51.128;4.566;2024-02-21T07:51:42;10.00;;;7.57;;
10387;SDS011;5240;51.128;4.566;2024-02-21T07:54:09;10.38;;;7.75;;
10387;SDS011;5240;51.128;4.566;2024-02-21T07:56:36;13.07;;;8.30;;
10387;SDS011;5240;51.128;4.566;2024-02-21T07:59:04;11.32;;;7.80;;
10387;SDS011;5240;51.128;4.566;2024-02-21T08:01:33;12.65;;;8.18;;
10387;SDS011;5240;51.128;4.566;2024-02-21T08:04:01;10.27;;;8.45;;
10387;SDS011;5240;51.128;4.566;2024-02-21T08:06:29;10.20;;;8.48;;
10387;SDS011;5240;51.128;4.566;2024-02-21T08:08:57;11.95;;;9.95;;
10387;SDS011;5240;51.128;4.566;2024-02-21T08:11:25;16.98;;;10.68;;
10387;SDS011;5240;51.128;4.566;2024-02-21T08:13:54;16.50;;;11.80;;
10387;SDS011;5240;51.128;4.566;2024-02-21T08:16:22;14.05;;;11.35;;
10387;SDS011;5240;51.128;4.566;2024-02-21T08:18:49;14.65;;;12.07;;
10387;SDS011;5240;51.128;4.566;2024-02-21T08:21:20;16.75;;;12.63;;
10387;SDS011;5240;51.128;4.566;2024-02-21T08:23:47;17.65;;;12.70;;
10387;SDS011;5240;51.128;4.566;2024-02-21T08:26:16;17.15;;;13.32;;
10387;SDS011;5240;51.128;4.566;2024-02-21T08:28:44;14.70;;;12.43;;
10387;SDS011;5240;51.128;4.566;2024-02-21T08:31:11;13.50;;;12.05;;
10387;SDS011;5240;51.128;4.566;2024-02-21T08:33:45;15.27;;;13.13;;
10387;SDS011;5240;51.128;4.566;2024-02-21T08:36:18;15.73;;;12.18;;
10387;SDS011;5240;51.128;4.566;2024-02-21T08:38:46;14.52;;;10.85;;
10387;SDS011;5240;51.128;4.566;2024-02-21T08:41:13;14.80;;;10.95;;
10387;SDS011;5240;51.128;4.566;2024-02-21T08:43:42;14.85;;;11.05;;
10387;SDS011;5240;51.128;4.566;2024-02-21T08:46:09;13.00;;;10.38;;
10387;SDS011;5240;51.128;4.566;2024-02-21T08:48:36;19.60;;;10.23;;
10387;SDS011;5240;51.128;4.566;2024-02-21T08:51:04;13.35;;;10.23;;
10387;SDS011;5240;51.128;4.566;2024-02-21T08:53:33;14.93;;;10.10;;
10387;SDS011;5240;51.128;4.566;2024-02-21T08:56:00;15.10;;;9.93;;
10387;SDS011;5240;51.128;4.566;2024-02-21T08:58:28;18.48;;;14.65;;
10387;SDS011;5240;51.128;4.566;2024-02-21T09:00:56;25.63;;;22.85;;
10387;SDS011;5240;51.128;4.566;2024-02-21T09:03:23;31.08;;;27.08;;
10387;SDS011;5240;51.128;4.566;2024-02-21T09:05:53;29.83;;;26.17;;
10387;SDS011;5240;51.128;4.566;2024-02-21T09:08:35;22.63;;;20.33;;
10387;SDS011;5240;51.128;4.566;2024-02-21T09:11:03;26.63;;;23.42;;
10387;SDS011;5240;51.128;4.566;2024-02-21T09:13:31;24.88;;;22.27;;
10387;SDS011;5240;51.128;4.566;2024-02-21T09:15:59;23.85;;;19.98;;
10387;SDS011;5240;51.128;4.566;2024-02-21T09:18:27;23.08;;;19.08;;
10387;SDS011;5240;51.128;4.566;2024-02-21T09:20:54;20.02;;;17.92;;
10387;SDS011;5240;51.128;4.566;2024-02-21T09:23:23;19.75;;;17.40;;
10387;SDS011;5240;51.128;4.566;2024-02-21T09:25:53;19.60;;;12.43;;
10387;SDS011;5240;51.128;4.566;2024-02-21T09:28:21;16.35;;;12.05;;
10387;SDS011;5240;51.128;4.566;2024-02-21T09:30:49;11.93;;;10.60;;
10387;SDS011;5240;51.128;4.566;2024-02-21T09:33:16;12.88;;;8.80;;
10387;SDS011;5240;51.128;4.566;2024-02-21T09:35:44;8.93;;;6.45;;
10387;SDS011;5240;51.128;4.566;2024-02-21T09:38:12;11.93;;;7.50;;
10387;SDS011;5240;51.128;4.566;2024-02-21T09:40:40;11.13;;;7.43;;
10387;SDS011;5240;51.128;4.566;2024-02-21T09:43:09;11.00;;;7.07;;
10387;SDS011;5240;51.128;4.566;2024-02-21T09:45:36;7.78;;;6.28;;
10387;SDS011;5240;51.128;4.566;2024-02-21T09:48:15;12.43;;;6.10;;
10387;SDS011;5240;51.128;4.566;2024-02-21T09:50:44;7.10;;;5.47;;
10387;SDS011;5240;51.128;4.566;2024-02-21T09:53:14;8.27;;;5.07;;
10387;SDS011;5240;51.128;4.566;2024-02-21T09:55:42;8.77;;;5.25;;
10387;SDS011;5240;51.128;4.566;2024-02-21T09:58:11;9.80;;;5.60;;
10387;SDS011;5240;51.128;4.566;2024-02-21T10:00:39;7.40;;;5.47;;
10387;SDS011;5240;51.128;4.566;2024-02-21T10:03:07;9.50;;;4.93;;
10387;SDS011;5240;51.128;4.566;2024-02-21T10:05:35;8.52;;;5.15;;
10387;SDS011;5240;51.128;4.566;2024-02-21T10:08:03;8.15;;;5.07;;
10387;SDS011;5240;51.128;4.566;2024-02-21T10:13:08;11.18;;;5.82;;
10387;SDS011;5240;51.128;4.566;2024-02-21T10:20:50;6.82;;;5.30;;
10387;SDS011;5240;51.128;4.566;2024-02-21T10:23:27;8.48;;;4.90;;
10387;SDS011;5240;51.128;4.566;2024-02-21T10:25:54;7.25;;;4.32;;
10387;SDS011;5240;51.128;4.566;2024-02-21T10:28:31;7.32;;;4.18;;
10387;SDS011;5240;51.128;4.566;2024-02-21T10:30:58;8.27;;;3.83;;
10387;SDS011;5240;51.128;4.566;2024-02-21T10:33:26;8.48;;;3.80;;
10387;SDS011;5240;51.128;4.566;2024-02-21T10:36:07;8.32;;;3.78;;
10387;SDS011;5240;51.128;4.566;2024-02-21T10:38:35;7.57;;;3.60;;
10387;SDS011;5240;51.128;4.566;2024-02-21T10:41:03;9.93;;;3.72;;
10387;SDS011;5240;51.128;4.566;2024-02-21T10:43:33;8.48;;;3.70;;
10387;SDS011;5240;51.128;4.566;2024-02-21T10:46:05;6.45;;;3.92;;
10387;SDS011;5240;51.128;4.566;2024-02-21T10:48:43;8.68;;;3.80;;
10387;SDS011;5240;51.128;4.566;2024-02-21T10:51:14;6.30;;;3.35;;
10387;SDS011;5240;51.128;4.566;2024-02-21T10:53:47;9.18;;;3.65;;
10387;SDS011;5240;51.128;4.566;2024-02-21T10:56:26;7.57;;;3.92;;
10387;SDS011;5240;51.128;4.566;2024-02-21T10:58:53;8.55;;;3.58;;
10387;SDS011;5240;51.128;4.566;2024-02-21T11:01:22;8.63;;;3.67;;
10387;SDS011;5240;51.128;4.566;2024-02-21T11:03:52;8.00;;;4.22;;
10387;SDS011;5240;51.128;4.566;2024-02-21T11:06:24;7.07;;;4.40;;
10387;SDS011;5240;51.128;4.566;2024-02-21T11:08:59;11.95;;;4.22;;
10387;SDS011;5240;51.128;4.566;2024-02-21T11:11:28;8.30;;;3.92;;
10387;SDS011;5240;51.128;4.566;2024-02-21T11:14:03;11.05;;;4.20;;
10387;SDS011;5240;51.128;4.566;2024-02-21T11:16:34;10.48;;;4.00;;
10387;SDS011;5240;51.128;4.566;2024-02-21T11:19:08;5.90;;;3.20;;
10387;SDS011;5240;51.128;4.566;2024-02-21T11:21:37;12.32;;;3.78;;
10387;SDS011;5240;51.128;4.566;2024-02-21T11:24:06;8.38;;;3.35;;
10387;SDS011;5240;51.128;4.566;2024-02-21T11:26:36;9.10;;;3.50;;
10387;SDS011;5240;51.128;4.566;2024-02-21T11:29:04;6.88;;;3.33;;
10387;SDS011;5240;51.128;4.566;2024-02-21T11:31:40;8.38;;;3.47;;
10387;SDS011;5240;51.128;4.566;2024-02-21T11:34:10;10.57;;;3.55;;
10387;SDS011;5240;51.128;4.566;2024-02-21T11:36:47;6.80;;;3.45;;
10387;SDS011;5240;51.128;4.566;2024-02-21T11:39:21;7.13;;;3.70;;
10387;SDS011;5240;51.128;4.566;2024-02-21T11:42:02;5.82;;;3.15;;
10387;SDS011;5240;51.128;4.566;2024-02-21T11:44:30;9.70;;;3.45;;
10387;SDS011;5240;51.128;4.566;2024-02-21T11:46:58;7.30;;;3.05;;
10387;SDS011;5240;51.128;4.566;2024-02-21T11:49:25;5.97;;;3.28;;
10387;SDS011;5240;51.128;4.566;2024-02-21T11:52:00;8.50;;;2.97;;
10387;SDS011;5240;51.128;4.566;2024-02-21T11:54:29;6.82;;;3.08;;
10387;SDS011;5240;51.128;4.566;2024-02-21T11:56:56;6.78;;;3.35;;
10387;SDS011;5240;51.128;4.566;2024-02-21T11:59:24;6.70;;;3.03;;
10387;SDS011;5240;51.128;4.566;2024-02-21T12:01:52;6.90;;;3.28;;
10387;SDS011;5240;51.128;4.566;2024-02-21T12:04:19;10.55;;;3.28;;
10387;SDS011;5240;51.128;4.566;2024-02-21T12:06:49;7.05;;;3.42;;
10387;SDS011;5240;51.128;4.566;2024-02-21T12:09:17;7.55;;;3.20;;
10387;SDS011;5240;51.128;4.566;2024-02-21T12:11:45;5.78;;;3.17;;
10387;SDS011;5240;51.128;4.566;2024-02-21T12:14:15;7.22;;;3.38;;
10387;SDS011;5240;51.128;4.566;2024-02-21T12:16:44;7.45;;;3.88;;
10387;SDS011;5240;51.128;4.566;2024-02-21T12:19:12;7.20;;;3.20;;
10387;SDS011;5240;51.128;4.566;2024-02-21T12:21:42;7.93;;;3.65;;
10387;SDS011;5240;51.128;4.566;2024-02-21T12:24:13;9.27;;;3.17;;
10387;SDS011;5240;51.128;4.566;2024-02-21T12:26:42;6.90;;;3.17;;
10387;SDS011;5240;51.128;4.566;2024-02-21T12:29:09;7.03;;;3.50;;
10387;SDS011;5240;51.128;4.566;2024-02-21T12:31:36;10.25;;;3.80;;
10387;SDS011;5240;51.128;4.566;2024-02-21T12:34:04;9.02;;;4.03;;
10387;SDS011;5240;51.128;4.566;2024-02-21T12:36:32;7.97;;;3.85;;
10387;SDS011;5240;51.128;4.566;2024-02-21T12:38:59;8.20;;;3.80;;
10387;SDS011;5240;51.128;4.566;2024-02-21T12:41:28;9.18;;;3.90;;
10387;SDS011;5240;51.128;4.566;2024-02-21T12:43:58;7.50;;;4.18;;
10387;SDS011;5240;51.128;4.566;2024-02-21T12:46:26;7.40;;;4.35;;
10387;SDS011;5240;51.128;4.566;2024-02-21T12:48:53;7.88;;;4.57;;
10387;SDS011;5240;51.128;4.566;2024-02-21T12:51:20;5.85;;;4.05;;
10387;SDS011;5240;51.128;4.566;2024-02-21T12:53:47;9.85;;;4.70;;
10387;SDS011;5240;51.128;4.566;2024-02-21T12:56:15;7.60;;;4.78;;
10387;SDS011;5240;51.128;4.566;2024-02-21T12:58:43;9.88;;;4.28;;
10387;SDS011;5240;51.128;4.566;2024-02-21T13:01:12;9.45;;;4.40;;
10387;SDS011;5240;51.128;4.566;2024-02-21T13:03:39;9.25;;;4.63;;
10387;SDS011;5240;51.128;4.566;2024-02-21T13:06:07;7.85;;;4.45;;
10387;SDS011;5240;51.128;4.566;2024-02-21T13:08:35;10.13;;;4.40;;
10387;SDS011;5240;51.128;4.566;2024-02-21T13:11:03;8.15;;;4.15;;
10387;SDS011;5240;51.128;4.566;2024-02-21T13:13:30;8.60;;;4.47;;
10387;SDS011;5240;51.128;4.566;2024-02-21T13:15:57;7.20;;;4.13;;
10387;SDS011;5240;51.128;4.566;2024-02-21T13:18:26;6.65;;;4.00;;
10387;SDS011;5240;51.128;4.566;2024-02-21T13:20:53;8.30;;;4.20;;
10387;SDS011;5240;51.128;4.566;2024-02-21T13:23:21;11.23;;;4.13;;
10387;SDS011;5240;51.128;4.566;2024-02-21T13:25:48;9.50;;;4.20;;
10387;SDS011;5240;51.128;4.566;2024-02-21T13:28:15;7.15;;;4.00;;
10387;SDS011;5240;51.128;4.566;2024-02-21T13:30:43;7.88;;;3.88;;
10387;SDS011;5240;51.128;4.566;2024-02-21T13:33:10;8.52;;;4.07;;
10387;SDS011;5240;51.128;4.566;2024-02-21T13:35:39;11.98;;;4.03;;
10387;SDS011;5240;51.128;4.566;2024-02-21T13:38:06;8.30;;;4.05;;
10387;SDS011;5240;51.128;4.566;2024-02-21T13:40:35;6.18;;;3.85;;
10387;SDS011;5240;51.128;4.566;2024-02-21T13:43:02;6.80;;;4.00;;
10387;SDS011;5240;51.128;4.566;2024-02-21T13:45:29;6.30;;;3.83;;
10387;SDS011;5240;51.128;4.566;2024-02-21T13:47:57;10.50;;;4.50;;
10387;SDS011;5240;51.128;4.566;2024-02-21T13:50:27;8.07;;;3.90;;
10387;SDS011;5240;51.128;4.566;2024-02-21T13:52:57;7.80;;;4.05;;
10387;SDS011;5240;51.128;4.566;2024-02-21T13:55:26;8.43;;;4.15;;
10387;SDS011;5240;51.128;4.566;2024-02-21T13:57:53;5.78;;;3.90;;
10387;SDS011;5240;51.128;4.566;2024-02-21T14:00:20;6.90;;;3.92;;
10387;SDS011;5240;51.128;4.566;2024-02-21T14:02:48;5.80;;;4.00;;
10387;SDS011;5240;51.128;4.566;2024-02-21T14:05:15;7.93;;;4.32;;
10387;SDS011;5240;51.128;4.566;2024-02-21T14:07:42;7.65;;;4.43;;
10387;SDS011;5240;51.128;4.566;2024-02-21T14:10:11;7.70;;;4.50;;
10387;SDS011;5240;51.128;4.566;2024-02-21T14:12:38;7.93;;;4.40;;
10387;SDS011;5240;51.128;4.566;2024-02-21T14:15:06;8.32;;;4.45;;
10387;SDS011;5240;51.128;4.566;2024-02-21T14:17:34;8.57;;;4.65;;
10387;SDS011;5240;51.128;4.566;2024-02-21T14:20:01;8.13;;;4.88;;
10387;SDS011;5240;51.128;4.566;2024-02-21T14:22:29;6.60;;;4.43;;
10387;SDS011;5240;51.128;4.566;2024-02-21T14:24:57;7.07;;;4.57;;
10387;SDS011;5240;51.128;4.566;2024-02-21T14:27:25;8.02;;;4.70;;
10387;SDS011;5240;51.128;4.566;2024-02-21T14:29:53;8.02;;;5.03;;
10387;SDS011;5240;51.128;4.566;2024-02-21T14:32:20;9.40;;;4.65;;
10387;SDS011;5240;51.128;4.566;2024-02-21T14:34:47;7.43;;;4.75;;
10387;SDS011;5240;51.128;4.566;2024-02-21T14:37:15;8.90;;;5.13;;
10387;SDS011;5240;51.128;4.566;2024-02-21T14:39:42;6.28;;;4.82;;
10387;SDS011;5240;51.128;4.566;2024-02-21T14:42:09;5.85;;;4.47;;
10387;SDS011;5240;51.128;4.566;2024-02-21T14:44:38;10.13;;;4.72;;
10387;SDS011;5240;51.128;4.566;2024-02-21T14:47:06;7.80;;;5.30;;
10387;SDS011;5240;51.128;4.566;2024-02-21T14:49:33;9.00;;;5.25;;
10387;SDS011;5240;51.128;4.566;2024-02-21T14:52:01;8.10;;;5.03;;
10387;SDS011;5240;51.128;4.566;2024-02-21T14:54:28;9.95;;;5.03;;
10387;SDS011;5240;51.128;4.566;2024-02-21T14:56:55;10.40;;;5.30;;
10387;SDS011;5240;51.128;4.566;2024-02-21T14:59:22;6.50;;;4.80;;
10387;SDS011;5240;51.128;4.566;2024-02-21T15:01:51;7.82;;;4.88;;
10387;SDS011;5240;51.128;4.566;2024-02-21T15:04:18;9.95;;;5.47;;
10387;SDS011;5240;51.128;4.566;2024-02-21T15:06:45;10.45;;;4.78;;
10387;SDS011;5240;51.128;4.566;2024-02-21T15:09:13;6.93;;;5.38;;
10387;SDS011;5240;51.128;4.566;2024-02-21T15:11:41;8.73;;;4.90;;
10387;SDS011;5240;51.128;4.566;2024-02-21T15:14:09;8.77;;;4.55;;
10387;SDS011;5240;51.128;4.566;2024-02-21T15:16:36;5.85;;;4.57;;